Time;durP1;ratioP1;P1;durP2;ratioP2;P2;SDS_P1;SDS_P2;PMS_P1;PMS_P2;Temp;Humidity;BMP_temperature;BMP_pressure;BME280_temperature;BME280_humidity;BME280_pressure;Samples;Min_cycle;Max_cycle;Signal;HPM_P1;HPM_P2
2021/12/19 00:00:39;;;;;;;10.47;3.93;;;7.20;1.00;;;;;;4953039;28;20782;-51
2021/12/19 00:03:49;;;;;;;10.70;4.20;;;7.20;1.00;;;;;;4953023;29;20405;-51
2021/12/19 00:08:49;;;;;;;13.70;3.97;;;7.20;99.90;;;;;;4953023;29;20424;-51
2021/12/19 00:11:18;;;;;;;10.97;4.70;;;7.20;1.00;;;;;;4952858;29;20421;-51
2021/12/19 00:13:43;;;;;;;7.63;3.90;;;7.20;1.00;;;;;;4952844;29;20189;-51
2021/12/19 00:16:10;;;;;;;12.40;4.30;;;7.20;99.90;;;;;;4952716;29;20536;-51
2021/12/19 00:18:36;;;;;;;9.47;4.17;;;7.20;1.00;;;;;;4952877;29;20221;-51
2021/12/19 00:21:02;;;;;;;10.57;4.37;;;7.20;1.00;;;;;;4951260;29;21009;-51
2021/12/19 00:23:27;;;;;;;8.20;4.43;;;7.20;1.00;;;;;;4952665;29;20417;-52
2021/12/19 00:25:53;;;;;;;17.13;4.40;;;7.20;5.10;;;;;;4952686;28;20189;-51
2021/12/19 00:28:19;;;;;;;15.03;5.57;;;7.20;99.90;;;;;;4953033;29;20261;-51
2021/12/19 00:30:45;;;;;;;16.77;4.53;;;7.20;99.90;;;;;;4952440;28;20417;-51
2021/12/19 00:33:11;;;;;;;17.53;5.47;;;7.20;99.90;;;;;;4952274;29;20228;-51
2021/12/19 00:35:37;;;;;;;19.77;5.30;;;7.20;99.90;;;;;;4952525;29;20457;-51
2021/12/19 00:38:03;;;;;;;11.60;4.93;;;7.20;99.90;;;;;;4952489;29;20221;-51
2021/12/19 00:40:29;;;;;;;13.33;4.73;;;7.20;99.90;;;;;;4953007;29;20214;-51
2021/12/19 00:43:10;;;;;;;16.07;5.20;;;7.10;99.90;;;;;;4952616;29;20541;-51
2021/12/19 00:45:39;;;;;;;15.20;5.50;;;7.20;99.90;;;;;;4952298;29;20193;-52
2021/12/19 00:48:07;;;;;;;24.53;5.67;;;7.20;99.90;;;;;;4952399;29;20436;-51
2021/12/19 00:50:35;;;;;;;14.30;4.53;;;7.20;99.90;;;;;;4951875;28;20959;-50
2021/12/19 00:53:02;;;;;;;17.00;5.03;;;7.20;99.90;;;;;;4952030;28;20468;-51
2021/12/19 00:55:28;;;;;;;18.53;5.93;;;7.10;39.30;;;;;;4952191;28;20496;-51
2021/12/19 00:57:54;;;;;;;15.03;5.23;;;7.20;1.00;;;;;;4952130;29;20567;-51
2021/12/19 01:00:22;;;;;;;17.27;5.03;;;7.20;99.90;;;;;;4952175;28;20824;-51
2021/12/19 01:02:51;;;;;;;17.80;5.80;;;7.20;1.00;;;;;;4952228;29;20410;-51
2021/12/19 01:05:18;;;;;;;12.47;4.87;;;7.20;99.90;;;;;;4952408;29;20432;-51
2021/12/19 01:07:44;;;;;;;11.90;4.90;;;7.20;99.90;;;;;;4952165;29;20510;-50
2021/12/19 01:10:10;;;;;;;13.33;4.40;;;7.20;99.90;;;;;;4952003;28;20853;-51
2021/12/19 01:12:38;;;;;;;22.40;5.27;;;7.20;99.90;;;;;;4952123;29;20883;-51
2021/12/19 01:15:06;;;;;;;19.80;6.00;;;7.20;1.00;;;;;;4951966;29;20185;-51
2021/12/19 01:17:31;;;;;;;20.77;5.97;;;7.20;1.00;;;;;;4952008;29;20436;-51
2021/12/19 01:19:57;;;;;;;19.03;5.60;;;7.20;99.90;;;;;;4951733;29;20414;-51
2021/12/19 01:22:22;;;;;;;11.03;5.23;;;7.30;1.00;;;;;;4952024;29;20216;-51
2021/12/19 01:24:48;;;;;;;17.90;5.90;;;7.30;99.90;;;;;;4952117;29;20196;-51
2021/12/19 01:27:13;;;;;;;15.67;6.70;;;7.30;97.00;;;;;;4950797;28;20722;-51
2021/12/19 01:29:39;;;;;;;22.90;5.00;;;7.30;99.90;;;;;;4951789;28;20201;-50
2021/12/19 01:32:05;;;;;;;24.80;6.07;;;7.30;1.00;;;;;;4952495;29;20205;-51
2021/12/19 01:34:30;;;;;;;15.53;5.50;;;7.30;1.00;;;;;;4951875;29;20185;-51
2021/12/19 01:36:56;;;;;;;17.73;5.70;;;7.30;1.00;;;;;;4951908;29;20504;-51
2021/12/19 01:39:21;;;;;;;21.63;6.07;;;7.30;1.00;;;;;;4951976;29;20221;-51
2021/12/19 01:41:49;;;;;;;16.43;5.10;;;7.30;1.00;;;;;;4951961;28;20269;-51
2021/12/19 01:44:15;;;;;;;21.23;5.60;;;7.30;46.80;;;;;;4951769;29;20182;-51
2021/12/19 01:46:40;;;;;;;16.50;5.73;;;7.40;40.20;;;;;;4951775;28;20538;-51
2021/12/19 01:49:06;;;;;;;21.60;6.87;;;7.40;99.90;;;;;;4951681;29;20205;-51
2021/12/19 01:51:32;;;;;;;21.27;5.53;;;7.30;1.00;;;;;;4951236;29;20225;-52
2021/12/19 01:53:58;;;;;;;19.57;6.47;;;7.40;99.90;;;;;;4951677;29;20288;-51
2021/12/19 01:56:23;;;;;;;15.90;5.80;;;7.40;99.90;;;;;;4952192;28;20417;-51
2021/12/19 01:58:49;;;;;;;18.10;5.97;;;7.40;99.90;;;;;;4951627;28;20736;-50
2021/12/19 02:01:14;;;;;;;20.60;6.33;;;7.40;99.90;;;;;;4951778;29;20273;-51
2021/12/19 02:03:40;;;;;;;21.60;6.07;;;7.40;1.00;;;;;;4952233;28;20194;-50
2021/12/19 02:06:06;;;;;;;17.37;6.00;;;7.30;1.00;;;;;;4954681;29;20192;-51
2021/12/19 02:08:32;;;;;;;11.00;4.80;;;7.40;99.90;;;;;;4955207;29;20221;-51
2021/12/19 02:10:58;;;;;;;14.37;5.63;;;7.40;1.00;;;;;;4955073;29;20186;-51
2021/12/19 02:13:23;;;;;;;12.87;4.93;;;7.40;1.00;;;;;;4954936;29;20748;-51
2021/12/19 02:15:49;;;;;;;20.87;5.37;;;7.30;1.00;;;;;;4955014;29;20196;-51
2021/12/19 02:18:17;;;;;;;18.93;4.40;;;7.40;1.00;;;;;;4954962;28;20252;-51
2021/12/19 02:20:50;;;;;;;16.67;4.90;;;7.40;1.00;;;;;;4955203;29;20556;-51
2021/12/19 02:23:18;;;;;;;16.00;4.10;;;7.40;1.00;;;;;;4954821;29;20992;-50
2021/12/19 02:25:45;;;;;;;20.43;5.10;;;7.40;1.00;;;;;;4954647;29;20469;-51
2021/12/19 02:28:12;;;;;;;16.70;4.47;;;7.40;68.50;;;;;;4955233;29;20420;-50
2021/12/19 02:30:38;;;;;;;17.63;4.90;;;7.40;11.90;;;;;;4954912;28;20528;-51
2021/12/19 02:33:11;;;;;;;19.90;5.70;;;7.40;99.90;;;;;;4954825;28;20414;-51
2021/12/19 02:35:37;;;;;;;19.80;5.17;;;7.30;99.90;;;;;;4954949;29;20939;-51
2021/12/19 02:40:42;;;;;;;21.40;5.63;;;7.40;99.90;;;;;;4954754;28;20995;-51
2021/12/19 02:48:36;;;;;;;17.00;5.40;;;7.40;1.00;;;;;;4954748;29;20946;-51
2021/12/19 02:51:02;;;;;;;31.53;5.73;;;7.40;1.00;;;;;;4954042;29;20470;-50
2021/12/19 02:53:32;;;;;;;21.13;5.10;;;7.30;99.90;;;;;;4954635;29;20193;-51
2021/12/19 02:55:58;;;;;;;14.63;5.27;;;7.30;1.00;;;;;;4954290;29;20418;-51
2021/12/19 02:58:24;;;;;;;14.43;5.80;;;7.30;87.50;;;;;;4954484;28;20476;-51
2021/12/19 03:00:50;;;;;;;24.40;6.07;;;7.30;1.00;;;;;;4954426;28;20416;-51
2021/12/19 03:03:16;;;;;;;17.80;5.60;;;7.30;99.90;;;;;;4954406;28;20414;-51
2021/12/19 03:05:42;;;;;;;20.83;6.40;;;7.30;1.00;;;;;;4954441;29;20988;-51
2021/12/19 03:08:09;;;;;;;19.83;6.70;;;7.30;99.90;;;;;;4954180;29;20197;-51
2021/12/19 03:11:15;;;;;;;16.53;6.20;;;7.30;99.90;;;;;;4954041;28;20190;-51
2021/12/19 03:17:56;;;;;;;17.23;5.90;;;7.30;15.40;;;;;;4953997;29;20428;-51
2021/12/19 03:19:05;;;;;;;17.80;5.77;;;7.30;99.90;;;;;;4954298;29;20468;-51
2021/12/19 03:21:30;;;;;;;16.90;6.27;;;7.30;1.00;;;;;;4953556;29;20437;-50
2021/12/19 03:23:56;;;;;;;18.67;5.90;;;7.30;98.00;;;;;;4953724;29;20186;-51
2021/12/19 03:26:21;;;;;;;14.53;4.97;;;7.30;1.00;;;;;;4954015;28;20217;-51
2021/12/19 03:28:47;;;;;;;17.67;5.67;;;7.30;1.00;;;;;;4953839;28;20229;-51
2021/12/19 03:31:13;;;;;;;16.83;4.53;;;7.30;99.90;;;;;;4953567;29;20229;-51
2021/12/19 03:33:38;;;;;;;12.00;4.00;;;7.30;50.30;;;;;;4953647;29;20249;-51
2021/12/19 03:36:06;;;;;;;7.70;2.80;;;7.20;99.90;;;;;;4953779;28;20607;-51
2021/12/19 03:38:37;;;;;;;9.90;1.70;;;7.20;1.00;;;;;;4953377;28;20225;-50
2021/12/19 03:41:14;;;;;;;9.83;2.10;;;7.20;99.90;;;;;;4953795;29;20418;-51
2021/12/19 03:43:40;;;;;;;8.27;1.90;;;7.20;99.90;;;;;;4953518;29;20457;-51
2021/12/19 03:46:06;;;;;;;5.63;2.20;;;7.20;99.90;;;;;;4953382;28;20417;-51
2021/12/19 03:48:32;;;;;;;7.47;2.70;;;7.20;99.90;;;;;;4953342;29;20836;-51
2021/12/19 03:50:58;;;;;;;16.20;3.90;;;7.20;99.90;;;;;;4952715;28;20609;-51
2021/12/19 03:53:24;;;;;;;9.50;3.50;;;7.20;99.90;;;;;;4953225;28;20501;-51
2021/12/19 03:55:50;;;;;;;10.10;3.37;;;7.20;14.30;;;;;;4953263;29;20508;-50
2021/12/19 03:58:18;;;;;;;14.07;3.00;;;7.10;1.00;;;;;;4953070;29;20555;-51
2021/12/19 04:00:45;;;;;;;7.23;3.10;;;7.10;77.80;;;;;;4953286;29;20456;-52
2021/12/19 04:03:17;;;;;;;6.07;2.53;;;7.10;1.00;;;;;;4953128;28;20429;-51
2021/12/19 04:05:43;;;;;;;6.40;2.57;;;7.10;1.00;;;;;;4953330;29;20410;-51
2021/12/19 04:08:09;;;;;;;4.60;2.20;;;7.00;99.90;;;;;;4953037;28;20425;-51
2021/12/19 04:10:35;;;;;;;3.10;2.00;;;7.00;1.00;;;;;;4952986;29;20425;-51
2021/12/19 04:13:02;;;;;;;6.87;2.67;;;7.00;99.90;;;;;;4951452;28;20452;-51
2021/12/19 04:15:28;;;;;;;12.33;2.20;;;7.00;1.00;;;;;;4953002;29;20188;-51
2021/12/19 04:17:53;;;;;;;6.97;1.70;;;6.90;1.00;;;;;;4952774;29;20469;-51
2021/12/19 04:20:19;;;;;;;6.03;2.00;;;6.90;1.00;;;;;;4952530;29;20440;-51
2021/12/19 04:22:48;;;;;;;4.27;1.73;;;6.90;72.10;;;;;;4952568;28;20198;-51
2021/12/19 04:25:14;;;;;;;2.83;1.50;;;6.90;99.90;;;;;;4952697;28;20975;-51
2021/12/19 04:27:40;;;;;;;4.13;1.87;;;6.80;99.90;;;;;;4952015;28;20417;-51
2021/12/19 04:30:08;;;;;;;2.80;1.70;;;6.80;1.00;;;;;;4952364;28;20493;-51
2021/12/19 04:32:39;;;;;;;4.60;1.77;;;6.80;1.00;;;;;;4952843;28;20422;-51
2021/12/19 04:35:05;;;;;;;4.20;1.77;;;6.80;1.00;;;;;;4952608;29;20417;-51
2021/12/19 04:38:23;;;;;;;4.47;1.60;;;6.80;1.00;;;;;;4952395;29;20896;-51
2021/12/19 04:40:47;;;;;;;4.20;1.97;;;6.70;1.00;;;;;;4952371;29;20463;-51
2021/12/19 04:52:03;;;;;;;4.10;1.63;;;6.80;99.90;;;;;;4948676;28;21049;-51
2021/12/19 04:54:47;;;;;;;12.83;2.50;;;6.80;99.90;;;;;;4952076;28;20520;-51
2021/12/19 04:59:53;;;;;;;7.77;3.00;;;6.80;99.90;;;;;;4952587;29;20974;-51
2021/12/19 05:02:43;;;;;;;9.37;3.10;;;6.80;99.90;;;;;;4952195;29;20425;-51
2021/12/19 05:15:50;;;;;;;13.30;3.13;;;6.80;99.90;;;;;;4952196;29;20500;-51
2021/12/19 05:18:16;;;;;;;6.90;3.00;;;6.80;99.90;;;;;;4952061;29;20477;-51
2021/12/19 05:20:51;;;;;;;21.20;3.73;;;6.80;99.90;;;;;;4950218;28;20434;-51
2021/12/19 05:23:34;;;;;;;7.30;2.37;;;6.80;99.90;;;;;;4952511;29;20467;-51
2021/12/19 05:26:00;;;;;;;24.57;3.40;;;6.80;99.90;;;;;;4952495;28;20500;-50
2021/12/19 05:28:27;;;;;;;12.27;2.80;;;6.80;99.90;;;;;;4952194;29;20919;-51
2021/12/19 05:30:52;;;;;;;14.90;3.70;;;6.80;99.90;;;;;;4952016;29;20838;-51
2021/12/19 05:33:18;;;;;;;6.47;2.30;;;6.90;99.90;;;;;;4951941;29;20409;-50
2021/12/19 05:46:36;;;;;;;16.97;3.60;;;6.90;99.90;;;;;;4937087;28;20437;-51
2021/12/19 05:49:04;;;;;;;11.73;4.10;;;6.90;99.90;;;;;;4955152;29;20437;-51
2021/12/19 05:51:30;;;;;;;12.30;3.07;;;6.90;99.90;;;;;;4955051;29;20484;-51
2021/12/19 05:53:55;;;;;;;16.00;3.53;;;6.90;99.90;;;;;;4955446;29;20795;-51
2021/12/19 05:56:21;;;;;;;14.47;3.40;;;7.00;99.90;;;;;;4955458;29;20418;-51
2021/12/19 05:58:46;;;;;;;10.20;3.33;;;7.00;99.90;;;;;;4955301;29;20248;-51
2021/12/19 06:01:12;;;;;;;11.10;3.20;;;7.00;99.90;;;;;;4955353;29;20220;-51
2021/12/19 06:03:37;;;;;;;14.70;3.73;;;7.00;99.90;;;;;;4953900;29;20198;-51
2021/12/19 06:06:03;;;;;;;11.97;2.93;;;7.00;99.90;;;;;;4955259;29;20178;-51
2021/12/19 06:08:29;;;;;;;10.03;3.23;;;7.10;99.90;;;;;;4955240;29;20674;-51
2021/12/19 06:10:54;;;;;;;13.50;3.03;;;7.10;99.90;;;;;;4955168;29;20253;-51
2021/12/19 06:13:20;;;;;;;18.60;3.27;;;7.10;99.90;;;;;;4955330;28;20222;-51
2021/12/19 06:15:50;;;;;;;18.00;2.73;;;7.10;99.90;;;;;;4955396;29;20319;-52
2021/12/19 06:18:15;;;;;;;18.87;4.60;;;7.10;99.90;;;;;;4953478;29;20225;-51
2021/12/19 06:20:41;;;;;;;13.17;2.77;;;7.20;99.90;;;;;;4955153;29;20446;-51
2021/12/19 06:23:08;;;;;;;18.30;2.93;;;7.10;99.90;;;;;;4955197;29;20272;-51
2021/12/19 06:25:34;;;;;;;9.40;2.70;;;7.20;99.90;;;;;;4953768;29;20193;-51
2021/12/19 06:27:59;;;;;;;16.90;3.30;;;7.20;99.90;;;;;;4955170;29;20461;-51
2021/12/19 06:30:25;;;;;;;14.27;2.90;;;7.20;92.00;;;;;;4954707;29;20241;-51
2021/12/19 06:32:51;;;;;;;15.20;2.50;;;7.20;45.20;;;;;;4954679;29;20648;-51
2021/12/19 06:35:21;;;;;;;7.17;2.57;;;7.20;1.00;;;;;;4954813;29;20200;-51
2021/12/19 06:37:49;;;;;;;12.13;3.20;;;7.20;21.50;;;;;;4954863;29;20418;-51
2021/12/19 06:40:18;;;;;;;8.17;2.33;;;7.20;1.00;;;;;;4954860;28;20449;-51
2021/12/19 06:42:44;;;;;;;13.10;2.70;;;7.20;99.90;;;;;;4954938;29;20896;-51
2021/12/19 06:45:11;;;;;;;15.43;2.60;;;7.20;1.00;;;;;;4955010;29;20424;-52
2021/12/19 06:47:37;;;;;;;10.57;2.67;;;7.20;1.00;;;;;;4954587;29;20197;-51
2021/12/19 06:50:04;;;;;;;10.63;3.27;;;7.20;1.00;;;;;;4953318;28;21294;-51
2021/12/19 06:52:29;;;;;;;17.17;3.47;;;7.20;1.00;;;;;;4954551;29;20452;-51
2021/12/19 06:54:55;;;;;;;7.47;2.57;;;7.30;99.90;;;;;;4954342;29;20425;-51
2021/12/19 06:57:20;;;;;;;6.67;3.00;;;7.30;99.90;;;;;;4954320;29;20606;-51
2021/12/19 06:59:47;;;;;;;10.70;2.80;;;7.30;99.90;;;;;;4954138;28;20229;-50
2021/12/19 07:02:16;;;;;;;13.90;3.27;;;7.30;99.90;;;;;;4954383;29;20192;-51
2021/12/19 07:04:43;;;;;;;14.63;2.80;;;7.20;1.00;;;;;;4954292;29;20421;-51
2021/12/19 07:07:09;;;;;;;12.90;4.33;;;7.30;1.00;;;;;;4954194;28;20807;-51
2021/12/19 07:09:35;;;;;;;9.37;3.23;;;7.30;99.90;;;;;;4954186;29;20429;-51
2021/12/19 07:12:01;;;;;;;9.43;2.50;;;7.30;99.90;;;;;;4953992;29;20189;-51
2021/12/19 07:14:27;;;;;;;7.60;2.77;;;7.30;1.00;;;;;;4954289;29;20734;-51
2021/12/19 07:16:53;;;;;;;6.67;2.60;;;7.30;1.00;;;;;;4954095;29;20425;-51
2021/12/19 07:19:18;;;;;;;18.90;3.13;;;7.30;99.90;;;;;;4953590;29;20627;-51
2021/12/19 07:21:43;;;;;;;11.13;2.10;;;7.30;1.00;;;;;;4953906;28;20277;-51
2021/12/19 07:24:09;;;;;;;9.80;3.03;;;7.30;1.00;;;;;;4953931;29;20198;-52
2021/12/19 07:26:34;;;;;;;14.30;2.40;;;7.30;1.00;;;;;;4953681;28;20209;-51
2021/12/19 07:29:00;;;;;;;11.00;3.23;;;7.30;99.90;;;;;;4953496;29;20212;-51
2021/12/19 07:31:29;;;;;;;7.27;2.40;;;7.30;59.40;;;;;;4953866;29;20225;-51
2021/12/19 07:33:55;;;;;;;6.53;1.90;;;7.30;35.60;;;;;;4953329;29;20210;-51
2021/12/19 07:36:24;;;;;;;15.40;2.43;;;7.30;99.90;;;;;;4953392;29;20445;-51
2021/12/19 07:39:05;;;;;;;7.27;2.03;;;7.40;1.00;;;;;;4953496;29;20667;-51
2021/12/19 07:41:30;;;;;;;12.00;2.73;;;7.30;1.00;;;;;;4953747;29;20810;-51
2021/12/19 07:43:56;;;;;;;19.77;2.80;;;7.30;1.00;;;;;;4953946;29;20417;-51
2021/12/19 07:46:22;;;;;;;18.03;2.53;;;7.40;99.90;;;;;;4953316;29;20205;-51
2021/12/19 07:48:47;;;;;;;9.70;2.03;;;7.40;99.90;;;;;;4953451;29;20198;-51
2021/12/19 07:51:13;;;;;;;13.33;2.43;;;7.40;1.00;;;;;;4953315;29;20237;-53
2021/12/19 07:53:38;;;;;;;8.83;2.00;;;7.40;1.00;;;;;;4953325;28;20193;-51
2021/12/19 07:56:04;;;;;;;10.53;2.50;;;7.40;99.90;;;;;;4953384;29;20648;-51
2021/12/19 07:58:30;;;;;;;25.50;3.87;;;7.40;1.00;;;;;;4953209;28;20221;-51
2021/12/19 08:00:55;;;;;;;14.90;2.60;;;7.40;1.00;;;;;;4953412;29;20190;-51
2021/12/19 08:03:21;;;;;;;17.03;2.90;;;7.50;99.90;;;;;;4953117;28;20493;-50
2021/12/19 08:05:48;;;;;;;13.40;3.50;;;7.50;1.00;;;;;;4953175;29;20197;-51
2021/12/19 08:08:17;;;;;;;12.10;2.10;;;7.50;99.90;;;;;;4953302;29;20217;-51
2021/12/19 08:13:09;;;;;;;14.03;2.73;;;7.50;99.90;;;;;;4953247;29;20422;-51
2021/12/19 08:15:36;;;;;;;10.40;2.37;;;7.50;99.90;;;;;;4953261;28;20280;-52
2021/12/19 08:18:03;;;;;;;7.70;2.23;;;7.50;1.00;;;;;;4953210;29;20472;-51
2021/12/19 08:20:28;;;;;;;10.40;2.47;;;7.50;99.90;;;;;;4952991;29;20429;-51
2021/12/19 08:22:55;;;;;;;8.17;2.63;;;7.50;1.00;;;;;;4952363;28;20449;-51
2021/12/19 08:25:22;;;;;;;10.50;2.33;;;7.50;57.90;;;;;;4952848;29;20220;-51
2021/12/19 08:27:48;;;;;;;20.93;3.77;;;7.50;1.00;;;;;;4952889;29;20963;-50
2021/12/19 08:30:15;;;;;;;12.07;2.40;;;7.60;1.00;;;;;;4952545;28;20426;-51
2021/12/19 08:32:40;;;;;;;5.57;1.93;;;7.60;99.90;;;;;;4951316;28;20192;-51
2021/12/19 08:35:08;;;;;;;9.40;2.13;;;7.60;18.10;;;;;;4952743;29;20438;-51
2021/12/19 08:37:34;;;;;;;6.50;2.10;;;7.60;1.00;;;;;;4952543;28;20174;-52
2021/12/19 08:40:00;;;;;;;22.83;2.37;;;7.60;1.00;;;;;;4952539;29;20471;-51
2021/12/19 08:42:27;;;;;;;13.37;2.23;;;7.60;1.00;;;;;;4952623;28;20413;-52
2021/12/19 08:44:53;;;;;;;13.20;2.43;;;7.60;99.90;;;;;;4952363;29;20256;-51
2021/12/19 08:47:19;;;;;;;12.93;1.97;;;7.60;99.90;;;;;;4952813;29;20468;-52
2021/12/19 08:49:45;;;;;;;5.97;2.30;;;7.60;1.00;;;;;;4952525;29;20308;-51
2021/12/19 08:52:11;;;;;;;11.30;2.57;;;7.60;1.00;;;;;;4952419;28;20202;-51
2021/12/19 08:54:37;;;;;;;16.13;3.17;;;7.60;94.30;;;;;;4952416;29;20213;-51
2021/12/19 08:57:03;;;;;;;10.93;2.37;;;7.60;99.90;;;;;;4952352;29;20198;-51
2021/12/19 08:59:29;;;;;;;15.67;2.60;;;7.60;99.90;;;;;;4950805;29;20512;-51
2021/12/19 09:01:59;;;;;;;11.33;3.00;;;7.60;99.90;;;;;;4952669;29;20425;-51
2021/12/19 09:04:24;;;;;;;13.40;2.33;;;7.70;99.90;;;;;;4951934;29;20185;-51
2021/12/19 09:06:52;;;;;;;9.30;2.70;;;7.70;99.90;;;;;;4952584;28;20481;-51
2021/12/19 09:09:17;;;;;;;10.33;2.80;;;7.70;99.90;;;;;;4952261;29;20619;-51
2021/12/19 09:11:43;;;;;;;14.57;2.50;;;7.60;99.90;;;;;;4952127;29;20452;-51
2021/12/19 09:14:08;;;;;;;12.37;2.23;;;7.70;99.90;;;;;;4955929;28;20224;-51
2021/12/19 09:16:34;;;;;;;13.27;2.40;;;7.70;1.00;;;;;;4958712;28;20201;-51
2021/12/19 09:19:00;;;;;;;8.03;2.00;;;7.70;1.00;;;;;;4958372;28;20209;-51
2021/12/19 09:21:25;;;;;;;14.50;2.40;;;7.70;1.00;;;;;;4957238;28;20554;-51
2021/12/19 09:23:51;;;;;;;13.97;3.07;;;7.80;1.00;;;;;;4957237;28;20195;-52
2021/12/19 09:26:16;;;;;;;13.87;2.93;;;7.80;99.90;;;;;;4958416;29;20178;-51
2021/12/19 09:28:42;;;;;;;13.80;3.30;;;7.80;33.70;;;;;;4958450;28;20224;-51
2021/12/19 09:31:08;;;;;;;13.40;2.70;;;7.80;99.90;;;;;;4958376;28;20205;-51
2021/12/19 09:33:34;;;;;;;17.03;2.30;;;7.80;34.10;;;;;;4957142;28;20596;-51
2021/12/19 09:36:00;;;;;;;16.73;2.37;;;7.90;1.00;;;;;;4958468;29;20688;-52
2021/12/19 09:38:26;;;;;;;14.97;3.10;;;7.90;1.00;;;;;;4957760;28;20476;-51
2021/12/19 09:40:58;;;;;;;8.77;2.50;;;7.90;99.90;;;;;;4958463;28;20190;-51
2021/12/19 09:43:43;;;;;;;8.70;2.17;;;7.90;99.90;;;;;;4958302;29;20432;-51
2021/12/19 09:46:11;;;;;;;13.13;2.87;;;7.90;1.00;;;;;;4958202;28;20756;-51
2021/12/19 09:48:39;;;;;;;14.03;2.67;;;8.00;99.90;;;;;;4958833;28;20426;-51
2021/12/19 09:51:05;;;;;;;11.77;2.70;;;8.00;99.90;;;;;;4956753;28;20841;-51
2021/12/19 09:53:31;;;;;;;15.03;2.57;;;8.00;99.90;;;;;;4958226;28;20857;-51
2021/12/19 09:55:56;;;;;;;8.80;2.87;;;8.00;99.90;;;;;;4958158;28;20425;-53
2021/12/19 09:58:22;;;;;;;13.67;3.20;;;8.10;99.90;;;;;;4958163;28;20268;-51
2021/12/19 10:00:47;;;;;;;12.83;2.63;;;8.10;36.00;;;;;;4958287;29;20799;-51
2021/12/19 10:03:15;;;;;;;10.47;2.40;;;8.20;1.00;;;;;;4958297;29;20336;-51
2021/12/19 10:05:41;;;;;;;13.77;2.47;;;8.20;1.00;;;;;;4958230;28;20202;-54
2021/12/19 10:08:06;;;;;;;12.83;2.50;;;8.10;1.00;;;;;;4958008;29;20918;-51
2021/12/19 10:10:54;;;;;;;16.97;2.57;;;8.20;1.00;;;;;;4957334;29;20213;-51
2021/12/19 10:13:31;;;;;;;12.50;2.53;;;8.20;1.00;;;;;;4957917;28;20193;-51
2021/12/19 10:15:56;;;;;;;18.33;1.80;;;8.20;1.00;;;;;;4958443;28;20531;-52
2021/12/19 10:18:22;;;;;;;12.13;2.40;;;8.20;1.00;;;;;;4958713;28;20894;-51
2021/12/19 10:20:51;;;;;;;15.40;2.53;;;8.20;1.00;;;;;;4962615;28;20552;-51
2021/12/19 10:23:27;;;;;;;13.33;2.33;;;8.20;99.90;;;;;;4954872;28;20190;-51
2021/12/19 10:26:06;;;;;;;17.33;2.30;;;8.20;99.90;;;;;;4954547;28;20412;-51
2021/12/19 10:28:32;;;;;;;13.03;2.20;;;8.20;99.90;;;;;;4961541;28;20467;-51
2021/12/19 10:31:00;;;;;;;16.93;2.50;;;8.20;99.90;;;;;;4950364;28;20471;-51
2021/12/19 10:33:32;;;;;;;14.77;2.40;;;8.20;1.00;;;;;;4969459;28;20441;-51
2021/12/19 10:36:00;;;;;;;11.73;2.50;;;8.20;99.90;;;;;;4954171;28;20485;-51
2021/12/19 10:38:29;;;;;;;10.93;2.50;;;8.30;99.90;;;;;;4960953;28;20477;-51
2021/12/19 10:40:56;;;;;;;14.23;3.27;;;8.30;99.90;;;;;;4956904;28;20501;-51
2021/12/19 10:43:26;;;;;;;14.03;2.33;;;8.30;99.90;;;;;;4963551;28;20457;-51
2021/12/19 10:45:55;;;;;;;16.43;2.27;;;8.40;99.90;;;;;;4955812;28;20481;-51
2021/12/19 10:48:22;;;;;;;17.63;2.90;;;8.40;99.90;;;;;;4960152;28;20981;-51
2021/12/19 10:51:01;;;;;;;10.00;2.50;;;8.40;99.90;;;;;;4966613;28;20516;-51
2021/12/19 10:53:35;;;;;;;16.30;2.30;;;8.30;99.90;;;;;;4969551;28;20514;-52
2021/12/19 10:56:05;;;;;;;11.87;2.83;;;8.30;99.90;;;;;;4968529;28;20507;-50
2021/12/19 10:58:44;;;;;;;11.10;2.40;;;8.40;99.90;;;;;;4961604;28;20782;-51
2021/12/19 11:01:17;;;;;;;17.07;2.53;;;8.40;99.90;;;;;;4959523;28;20425;-51
2021/12/19 11:04:05;;;;;;;13.93;2.20;;;8.30;99.90;;;;;;4952521;28;20438;-52
2021/12/19 11:06:53;;;;;;;21.97;2.87;;;8.40;99.90;;;;;;4957081;28;20434;-51
2021/12/19 11:09:21;;;;;;;15.50;3.30;;;8.30;99.90;;;;;;4955696;28;20521;-51
2021/12/19 11:11:50;;;;;;;13.50;3.33;;;8.40;99.90;;;;;;4954935;28;20468;-51
2021/12/19 11:14:37;;;;;;;16.63;2.90;;;8.40;99.90;;;;;;4959611;28;20464;-51
2021/12/19 11:17:06;;;;;;;10.57;1.97;;;8.40;99.90;;;;;;4957054;28;20516;-51
2021/12/19 11:19:33;;;;;;;15.33;2.40;;;8.40;99.90;;;;;;4967995;28;20481;-51
2021/12/19 11:21:59;;;;;;;17.50;2.37;;;8.40;99.90;;;;;;4957478;28;20434;-51
2021/12/19 11:24:26;;;;;;;13.70;2.43;;;8.40;99.90;;;;;;4954500;29;20405;-51
2021/12/19 11:26:56;;;;;;;8.60;1.97;;;8.40;99.90;;;;;;4952993;28;20509;-51
2021/12/19 11:29:22;;;;;;;9.20;2.30;;;8.40;99.90;;;;;;4954249;29;20915;-51
2021/12/19 11:31:53;;;;;;;14.10;2.50;;;8.40;99.90;;;;;;4954773;29;20537;-51
2021/12/19 11:34:42;;;;;;;12.40;3.20;;;8.40;99.90;;;;;;4953313;29;20950;-51
2021/12/19 11:37:11;;;;;;;11.43;2.53;;;8.40;99.90;;;;;;4934944;29;20430;-51
2021/12/19 11:39:42;;;;;;;14.30;3.17;;;8.40;99.90;;;;;;4944041;29;20841;-51
2021/12/19 11:42:13;;;;;;;13.30;2.73;;;8.40;99.90;;;;;;4953455;29;20894;-51
2021/12/19 11:45:01;;;;;;;17.23;3.07;;;8.40;99.90;;;;;;4953046;29;20438;-52
2021/12/19 11:47:51;;;;;;;15.93;2.57;;;8.40;99.90;;;;;;4963771;28;20456;-51
2021/12/19 11:50:36;;;;;;;12.70;2.40;;;8.50;99.90;;;;;;4965257;28;20468;-51
2021/12/19 11:53:07;;;;;;;11.50;2.23;;;8.50;99.90;;;;;;4954207;28;20462;-51
2021/12/19 11:55:36;;;;;;;14.33;2.20;;;8.50;40.10;;;;;;4954254;28;20983;-51
2021/12/19 11:58:08;;;;;;;12.40;2.40;;;8.60;26.80;;;;;;4962476;28;20453;-52
2021/12/19 12:00:43;;;;;;;20.03;2.63;;;8.60;1.00;;;;;;4956557;28;20446;-51
2021/12/19 12:03:30;;;;;;;8.63;2.40;;;8.50;1.00;;;;;;4957574;28;20429;-52
2021/12/19 12:05:59;;;;;;;13.07;2.80;;;8.60;1.00;;;;;;4953270;28;20434;-52
2021/12/19 12:08:26;;;;;;;12.77;3.17;;;8.60;1.00;;;;;;4966797;28;20439;-51
2021/12/19 12:10:56;;;;;;;10.70;2.60;;;8.60;1.00;;;;;;4958718;28;20443;-51
2021/12/19 12:13:48;;;;;;;13.43;2.90;;;8.60;1.00;;;;;;4953973;28;20500;-52
2021/12/19 12:16:35;;;;;;;10.30;2.10;;;8.60;1.00;;;;;;4951345;28;20444;-52
2021/12/19 12:19:04;;;;;;;14.93;2.37;;;8.60;1.00;;;;;;4961564;28;20475;-51
2021/12/19 12:21:39;;;;;;;16.53;2.70;;;8.60;1.00;;;;;;4956046;28;20436;-52
2021/12/19 12:24:15;;;;;;;10.67;2.10;;;8.60;1.00;;;;;;4951529;28;20410;-52
2021/12/19 12:27:04;;;;;;;16.33;2.40;;;8.50;99.90;;;;;;4949102;28;20444;-52
2021/12/19 12:29:31;;;;;;;10.23;2.53;;;8.60;99.90;;;;;;4953829;28;20741;-52
2021/12/19 12:31:56;;;;;;;8.10;2.33;;;8.50;99.90;;;;;;4964081;28;20821;-52
2021/12/19 12:34:22;;;;;;;12.53;2.57;;;8.50;99.90;;;;;;4953287;28;20535;-51
2021/12/19 12:36:48;;;;;;;12.37;2.53;;;8.50;99.90;;;;;;4958574;28;20189;-52
2021/12/19 12:39:19;;;;;;;8.67;1.70;;;8.50;99.90;;;;;;4958818;28;20248;-51
2021/12/19 12:44:15;;;;;;;12.63;2.63;;;8.50;99.90;;;;;;4955611;28;20440;-51
2021/12/19 12:46:42;;;;;;;11.67;2.03;;;8.60;99.90;;;;;;4965392;28;20554;-51
2021/12/19 12:49:10;;;;;;;11.23;2.10;;;8.60;99.90;;;;;;4965822;28;20480;-51
2021/12/19 12:51:43;;;;;;;8.83;2.10;;;8.60;36.90;;;;;;4955476;28;20577;-52
2021/12/19 12:54:12;;;;;;;10.10;2.20;;;8.50;72.80;;;;;;4953025;28;20919;-51
2021/12/19 12:56:46;;;;;;;11.93;2.07;;;8.60;21.60;;;;;;4956855;28;20448;-52
2021/12/19 12:59:16;;;;;;;10.10;2.00;;;8.60;1.00;;;;;;4952643;28;20475;-51
2021/12/19 13:01:52;;;;;;;6.70;1.97;;;8.60;1.00;;;;;;4954138;28;20420;-52
2021/12/19 13:04:21;;;;;;;13.47;2.03;;;8.60;17.90;;;;;;4958235;28;20443;-52
2021/12/19 13:06:57;;;;;;;10.00;2.40;;;8.60;1.00;;;;;;4963088;28;20903;-52
2021/12/19 13:09:22;;;;;;;8.97;1.67;;;8.60;1.00;;;;;;4957051;28;21212;-51
2021/12/19 13:11:51;;;;;;;17.73;2.33;;;8.70;1.00;;;;;;4954479;28;20500;-52
2021/12/19 13:14:21;;;;;;;8.17;2.33;;;8.60;1.00;;;;;;4954620;28;20181;-52
2021/12/19 13:16:58;;;;;;;8.87;1.90;;;8.60;1.00;;;;;;4955072;28;20425;-51
2021/12/19 13:19:45;;;;;;;7.83;1.77;;;8.60;1.00;;;;;;4962713;28;20534;-51
2021/12/19 13:22:20;;;;;;;9.53;2.27;;;8.50;1.00;;;;;;4962355;28;20449;-52
2021/12/19 13:24:48;;;;;;;13.33;2.77;;;8.50;1.00;;;;;;4949290;28;20409;-51
2021/12/19 13:27:22;;;;;;;11.20;2.23;;;8.50;1.00;;;;;;4950448;28;20405;-54
2021/12/19 13:30:14;;;;;;;17.17;2.10;;;8.50;1.00;;;;;;4968946;28;20445;-52
2021/12/19 13:32:51;;;;;;;7.43;2.20;;;8.50;1.00;;;;;;4949384;28;20437;-52
2021/12/19 13:35:27;;;;;;;11.40;1.77;;;8.50;1.00;;;;;;4935440;29;20429;-52
2021/12/19 13:37:57;;;;;;;12.33;2.10;;;8.40;1.00;;;;;;4953035;29;20870;-51
2021/12/19 13:40:25;;;;;;;13.37;2.53;;;8.50;1.00;;;;;;4935112;29;20468;-52
2021/12/19 13:42:53;;;;;;;14.20;1.87;;;8.50;1.00;;;;;;4952152;29;20524;-52
2021/12/19 13:45:29;;;;;;;16.07;2.60;;;8.40;1.00;;;;;;4952569;28;20424;-52
2021/12/19 13:47:57;;;;;;;9.07;1.87;;;8.40;1.00;;;;;;4952727;29;20425;-52
2021/12/19 13:50:23;;;;;;;13.60;2.00;;;8.40;1.00;;;;;;4952444;28;20966;-52
2021/12/19 13:52:49;;;;;;;7.60;2.10;;;8.30;1.00;;;;;;4952674;29;20414;-51